Time;durP1;ratioP1;P1;durP2;ratioP2;P2;SDS_P1;SDS_P2;PMS_P1;PMS_P2;Temp;Humidity;BMP_temperature;BMP_pressure;BME280_temperature;BME280_humidity;BME280_pressure;Samples;Min_cycle;Max_cycle;Signal;HPM_P1;HPM_P2
2022/07/17 00:02:05;;;;;;;3.15;0.93;;;;;;;14.08;100.00;99274.75;4400493;32;20034;-74
2022/07/17 00:04:31;;;;;;;2.85;0.90;;;;;;;14.27;100.00;99321.13;4398644;32;20477;-73
2022/07/17 00:06:58;;;;;;;1.42;0.98;;;;;;;14.24;100.00;99326.25;4400270;32;20086;-72
2022/07/17 00:09:24;;;;;;;4.28;1.50;;;;;;;13.93;100.00;99278.25;4400198;32;20034;-73
2022/07/17 00:11:50;;;;;;;1.35;0.82;;;;;;;14.15;100.00;99318.66;4400359;32;20093;-73
2022/07/17 00:14:17;;;;;;;5.30;1.45;;;;;;;14.05;100.00;99299.66;4400175;32;20092;-73
2022/07/17 00:16:49;;;;;;;6.65;1.17;;;;;;;14.06;100.00;99314.84;4398808;32;20148;-73
2022/07/17 00:19:16;;;;;;;2.67;1.00;;;;;;;14.11;100.00;99333.78;4398866;32;20080;-73
2022/07/17 00:21:42;;;;;;;3.12;1.33;;;;;;;13.73;100.00;99287.09;4384961;32;20043;-73
2022/07/17 00:24:10;;;;;;;1.95;0.98;;;;;;;14.02;100.00;99332.66;4394877;32;20371;-73
2022/07/17 00:26:36;;;;;;;3.87;1.60;;;;;;;13.89;100.00;99330.47;4399520;32;20050;-73
2022/07/17 00:29:04;;;;;;;6.37;1.75;;;;;;;13.86;100.00;99299.31;4402476;32;20046;-73
2022/07/17 00:31:31;;;;;;;1.75;0.90;;;;;;;13.69;100.00;99304.94;4403483;32;20070;-73
2022/07/17 00:33:57;;;;;;;3.40;1.10;;;;;;;13.93;100.00;99337.78;4402624;32;20119;-72
2022/07/17 00:36:24;;;;;;;4.37;1.15;;;;;;;13.81;100.00;99312.84;4402498;32;20039;-72
2022/07/17 00:38:50;;;;;;;1.35;1.00;;;;;;;13.65;100.00;99314.66;4390411;32;20092;-72
2022/07/17 00:41:16;;;;;;;2.22;1.02;;;;;;;13.58;100.00;99304.06;4401123;32;20589;-72
2022/07/17 00:43:45;;;;;;;2.75;1.10;;;;;;;13.51;100.00;99318.91;4402685;32;20399;-72
2022/07/17 00:46:11;;;;;;;11.25;1.42;;;;;;;13.63;100.00;99312.22;4402695;32;20400;-73
2022/07/17 00:48:38;;;;;;;3.25;1.20;;;;;;;13.95;100.00;99373.53;4402151;32;20068;-72
2022/07/17 00:51:05;;;;;;;6.75;1.10;;;;;;;13.62;100.00;99331.41;4400392;32;20039;-72
2022/07/17 00:53:37;;;;;;;2.47;1.10;;;;;;;14.04;100.00;99365.72;4388632;32;20356;-73
2022/07/17 00:56:05;;;;;;;3.05;1.20;;;;;;;13.72;100.00;99334.19;4402730;32;20054;-72
2022/07/17 00:58:35;;;;;;;4.72;1.35;;;;;;;13.69;100.00;99332.00;4398179;32;20352;-72
2022/07/17 01:01:06;;;;;;;2.90;1.37;;;;;;;13.81;100.00;99375.87;4385403;32;20155;-72
2022/07/17 01:03:33;;;;;;;2.53;0.93;;;;;;;13.96;100.00;99368.91;4384598;32;20126;-72
2022/07/17 01:05:59;;;;;;;3.95;1.10;;;;;;;13.78;100.00;99335.00;4415009;32;20094;-72
2022/07/17 01:08:26;;;;;;;5.47;1.08;;;;;;;13.87;100.00;99354.28;4410420;32;20492;-73
2022/07/17 01:10:53;;;;;;;1.10;0.90;;;;;;;14.02;100.00;99372.47;4403911;32;20039;-72
2022/07/17 01:13:19;;;;;;;1.67;1.15;;;;;;;14.06;100.00;99379.00;4400369;32;20035;-72
2022/07/17 01:15:46;;;;;;;2.25;1.17;;;;;;;13.69;100.00;99336.56;4401929;32;20035;-73
2022/07/17 01:18:14;;;;;;;2.15;0.85;;;;;;;14.01;100.00;99393.31;4402878;32;20424;-73
2022/07/17 01:20:43;;;;;;;5.12;1.05;;;;;;;14.11;100.00;99387.94;4403439;32;20121;-73
2022/07/17 01:23:09;;;;;;;3.35;1.30;;;;;;;13.79;100.00;99342.88;4401464;32;20559;-72
2022/07/17 01:25:36;;;;;;;1.05;0.98;;;;;;;14.03;100.00;99388.47;4401966;32;20178;-73
2022/07/17 01:28:04;;;;;;;2.10;1.02;;;;;;;13.95;100.00;99394.38;4402078;32;20154;-73
2022/07/17 01:30:31;;;;;;;4.12;1.10;;;;;;;13.70;100.00;99344.44;4400639;32;20060;-73
2022/07/17 01:32:58;;;;;;;7.32;1.25;;;;;;;13.95;100.00;99395.19;4401226;32;20072;-73
2022/07/17 01:35:24;;;;;;;6.50;1.15;;;;;;;13.71;100.00;99356.09;4401175;32;20424;-73
2022/07/17 01:37:50;;;;;;;3.83;1.30;;;;;;;13.58;100.00;99351.97;4401223;32;20069;-73
2022/07/17 01:40:17;;;;;;;7.03;1.20;;;;;;;13.69;100.00;99366.34;4402794;32;20060;-73
2022/07/17 01:42:47;;;;;;;1.58;1.45;;;;;;;13.87;100.00;99381.34;4388687;32;20053;-73
2022/07/17 01:45:15;;;;;;;3.70;0.98;;;;;;;13.60;100.00;99344.38;4401173;32;20027;-73
2022/07/17 01:47:42;;;;;;;5.95;1.67;;;;;;;13.96;100.00;99396.81;4402187;32;20059;-73
2022/07/17 01:50:10;;;;;;;4.07;1.23;;;;;;;13.87;100.00;99381.34;4402251;32;20068;-73
2022/07/17 01:52:38;;;;;;;3.17;1.10;;;;;;;13.80;100.00;99398.63;4401783;32;20038;-73
2022/07/17 01:55:07;;;;;;;1.17;0.95;;;;;;;13.97;100.00;99389.50;4401517;32;20073;-73
2022/07/17 01:57:34;;;;;;;2.83;0.73;;;;;;;13.89;100.00;99385.41;4401086;32;20032;-73
2022/07/17 02:00:01;;;;;;;1.23;1.12;;;;;;;13.96;100.00;99390.56;4401767;32;20031;-73
2022/07/17 02:02:27;;;;;;;2.20;1.02;;;;;;;13.90;100.00;99387.03;4401932;32;20043;-73
2022/07/17 02:04:54;;;;;;;2.87;0.93;;;;;;;13.93;100.00;99383.00;4402593;32;20068;-73
2022/07/17 02:07:20;;;;;;;1.52;1.20;;;;;;;13.66;100.00;99351.47;4398595;32;20098;-73
2022/07/17 02:09:46;;;;;;;3.08;1.20;;;;;;;13.82;100.00;99379.44;4387550;32;20208;-73
2022/07/17 02:12:13;;;;;;;1.48;1.23;;;;;;;13.78;100.00;99359.38;4401313;32;20039;-73
2022/07/17 02:14:39;;;;;;;2.78;1.10;;;;;;;14.03;100.00;99393.88;4388034;32;20031;-74
2022/07/17 02:17:05;;;;;;;4.07;1.23;;;;;;;13.39;100.00;99328.03;4400292;32;20043;-73
2022/07/17 02:19:32;;;;;;;4.60;1.33;;;;;;;13.68;100.00;99383.69;4383897;32;20187;-73
2022/07/17 02:21:58;;;;;;;5.62;1.33;;;;;;;13.52;100.00;99359.22;4394729;32;20337;-74
2022/07/17 02:24:25;;;;;;;2.42;1.25;;;;;;;13.81;100.00;99384.00;4401788;32;20051;-73
2022/07/17 02:26:51;;;;;;;8.13;1.50;;;;;;;13.89;100.00;99398.13;4401959;32;20415;-74
2022/07/17 02:29:17;;;;;;;2.42;0.88;;;;;;;13.91;100.00;99387.84;4399961;32;20026;-73
2022/07/17 02:31:44;;;;;;;3.65;1.10;;;;;;;13.64;100.00;99356.31;4401077;32;20087;-73
2022/07/17 02:34:10;;;;;;;2.65;1.23;;;;;;;13.63;100.00;99392.56;4400557;32;20061;-73
2022/07/17 02:36:36;;;;;;;4.40;1.30;;;;;;;13.53;100.00;99404.16;4401343;32;20030;-73
2022/07/17 02:39:03;;;;;;;3.10;1.08;;;;;;;13.59;100.00;99396.88;4398468;32;20419;-73
2022/07/17 02:41:29;;;;;;;2.97;1.02;;;;;;;13.55;100.00;99407.41;4401530;32;20039;-74
2022/07/17 02:43:56;;;;;;;4.60;1.20;;;;;;;13.61;100.00;99397.44;4401461;32;20069;-73
2022/07/17 02:46:22;;;;;;;3.12;1.30;;;;;;;13.62;100.00;99396.34;4401893;32;20043;-73
2022/07/17 02:48:48;;;;;;;1.25;1.20;;;;;;;13.46;100.00;99370.28;4398595;32;20042;-73
2022/07/17 02:51:15;;;;;;;2.62;1.23;;;;;;;13.35;100.00;99348.56;4400099;32;20410;-73
2022/07/17 02:53:41;;;;;;;3.58;1.60;;;;;;;13.59;100.00;99386.03;4400889;32;20042;-73
2022/07/17 02:56:08;;;;;;;2.10;1.00;;;;;;;13.25;100.00;99353.87;4401311;32;20100;-73
2022/07/17 02:58:41;;;;;;;2.05;1.12;;;;;;;13.53;100.00;99404.16;4395054;32;20096;-73
2022/07/17 03:01:08;;;;;;;2.33;1.15;;;;;;;13.57;100.00;99393.59;4383925;32;20047;-73
2022/07/17 03:03:34;;;;;;;2.20;1.40;;;;;;;13.56;100.00;99408.19;4386174;32;20113;-73
2022/07/17 03:06:00;;;;;;;4.70;1.30;;;;;;;13.21;100.00;99353.56;4385337;32;20038;-73
2022/07/17 03:08:27;;;;;;;4.60;1.80;;;;;;;13.47;100.00;99404.38;4384808;32;20057;-72
2022/07/17 03:10:53;;;;;;;8.10;1.30;;;;;;;13.42;100.00;99403.25;4394872;32;20039;-72
2022/07/17 03:13:19;;;;;;;9.73;1.90;;;;;;;13.47;100.00;99404.38;4398358;32;20045;-72
2022/07/17 03:15:46;;;;;;;7.22;1.77;;;;;;;13.07;100.00;99352.38;4401647;32;20054;-71
2022/07/17 03:18:12;;;;;;;3.78;1.50;;;;;;;13.40;100.00;99394.59;4399932;32;20204;-72
2022/07/17 03:20:39;;;;;;;4.78;1.48;;;;;;;13.30;100.00;99380.94;4401279;32;20070;-72
2022/07/17 03:23:05;;;;;;;8.25;2.55;;;;;;;13.50;100.00;99409.22;4400951;32;20043;-72
2022/07/17 03:25:31;;;;;;;3.17;1.17;;;;;;;13.37;100.00;99391.56;4385947;32;20066;-72
2022/07/17 03:27:58;;;;;;;5.65;2.10;;;;;;;13.40;100.00;99410.81;4398645;32;20034;-73
2022/07/17 03:30:25;;;;;;;8.93;1.67;;;;;;;13.44;100.00;99406.50;4396685;32;20959;-73
2022/07/17 03:32:51;;;;;;;3.45;1.25;;;;;;;13.14;100.00;99369.19;4385490;32;20121;-73
2022/07/17 03:35:18;;;;;;;8.48;1.55;;;;;;;13.08;100.00;99365.66;4401060;32;20043;-73
2022/07/17 03:37:44;;;;;;;11.80;1.45;;;;;;;13.36;100.00;99404.28;4384630;32;20052;-72
2022/07/17 03:40:11;;;;;;;5.62;1.70;;;;;;;13.32;100.00;99403.12;4387164;32;20078;-72
2022/07/17 03:42:37;;;;;;;2.47;1.27;;;;;;;13.13;100.00;99373.00;4399994;32;20031;-73
2022/07/17 03:45:05;;;;;;;3.37;1.60;;;;;;;13.42;100.00;99419.47;4400975;32;20047;-73
2022/07/17 03:47:31;;;;;;;2.22;1.40;;;;;;;13.22;100.00;99387.62;4399043;32;20344;-73
2022/07/17 03:49:57;;;;;;;3.58;1.10;;;;;;;13.34;100.00;99433.47;4399457;32;20060;-73
2022/07/17 03:52:24;;;;;;;2.78;1.37;;;;;;;13.16;100.00;99437.37;4400763;32;20146;-73
2022/07/17 03:54:50;;;;;;;3.08;1.20;;;;;;;12.91;100.00;99400.09;4400733;32;20057;-73
2022/07/17 03:57:16;;;;;;;10.82;1.48;;;;;;;13.25;100.00;99432.28;4400680;32;20060;-74
2022/07/17 03:59:43;;;;;;;1.35;1.33;;;;;;;13.33;100.00;99464.28;4399293;32;20064;-71
2022/07/17 04:02:10;;;;;;;4.80;1.50;;;;;;;13.07;100.00;99412.66;4399309;32;20043;-72
2022/07/17 04:04:36;;;;;;;1.55;1.40;;;;;;;13.43;100.00;99456.28;4400390;32;20039;-72
2022/07/17 04:07:26;;;;;;;7.87;1.50;;;;;;;13.46;100.00;99463.03;4400861;32;20072;-72
2022/07/17 04:09:58;;;;;;;3.35;2.22;;;;;;;13.56;100.00;99463.16;4398568;32;20756;-72
2022/07/17 04:12:25;;;;;;;3.35;1.87;;;;;;;13.48;100.00;99455.47;4400338;32;20084;-73
2022/07/17 04:14:52;;;;;;;5.57;1.60;;;;;;;13.22;100.00;99430.09;4400705;32;20074;-72
2022/07/17 04:17:18;;;;;;;4.75;1.50;;;;;;;13.57;100.00;99459.34;4400709;32;20039;-73
2022/07/17 04:19:45;;;;;;;7.95;1.55;;;;;;;13.58;100.00;99465.59;4395405;32;20058;-73
2022/07/17 04:22:11;;;;;;;6.18;1.60;;;;;;;13.43;100.00;99466.25;4385488;32;20174;-73
2022/07/17 04:24:37;;;;;;;4.87;1.48;;;;;;;13.31;100.00;99436.66;4395961;32;20039;-73
2022/07/17 04:27:04;;;;;;;2.15;1.60;;;;;;;13.73;100.00;99462.19;4398299;32;20042;-73
2022/07/17 04:29:30;;;;;;;5.18;1.35;;;;;;;13.65;100.00;99468.88;4400164;32;20465;-72
2022/07/17 04:31:57;;;;;;;5.10;2.10;;;;;;;13.41;100.00;99433.25;4402948;32;20102;-72
2022/07/17 04:34:24;;;;;;;6.22;1.77;;;;;;;13.66;100.00;99456.16;4400135;32;20192;-73
2022/07/17 04:36:51;;;;;;;5.75;1.20;;;;;;;13.72;100.00;99482.19;4400479;32;20039;-72
2022/07/17 04:39:17;;;;;;;7.95;1.35;;;;;;;13.61;100.00;99492.13;4399770;32;20031;-73
2022/07/17 04:41:44;;;;;;;6.22;1.42;;;;;;;13.71;100.00;99481.38;4398768;32;20050;-72
2022/07/17 04:44:10;;;;;;;5.95;1.80;;;;;;;13.43;100.00;99480.63;4398902;32;20057;-73
2022/07/17 04:46:37;;;;;;;4.57;1.50;;;;;;;13.72;100.00;99488.44;4400468;32;20068;-73
2022/07/17 04:49:03;;;;;;;4.45;1.35;;;;;;;13.40;100.00;99421.63;4384969;32;20046;-73
2022/07/17 04:51:29;;;;;;;2.92;1.65;;;;;;;13.33;100.00;99453.47;4400406;32;20361;-73
2022/07/17 04:53:56;;;;;;;17.05;1.83;;;;;;;13.77;100.00;99504.69;4398443;32;20115;-72
2022/07/17 04:56:22;;;;;;;9.52;1.33;;;;;;;13.59;100.00;99453.69;4398484;32;20061;-73
2022/07/17 04:58:49;;;;;;;4.70;1.30;;;;;;;14.08;100.00;99482.44;4394292;32;20069;-72
2022/07/17 05:01:15;;;;;;;4.35;1.37;;;;;;;14.31;100.00;99506.41;4385819;32;20036;-73
2022/07/17 05:03:41;;;;;;;2.75;1.23;;;;;;;14.21;100.00;99516.38;4382490;32;20082;-72
2022/07/17 05:06:09;;;;;;;8.25;1.52;;;;;;;14.28;100.00;99503.38;4389216;32;20043;-72
2022/07/17 05:08:37;;;;;;;3.58;1.37;;;;;;;14.02;100.00;99476.16;4391130;32;20056;-73
2022/07/17 05:11:11;;;;;;;6.85;1.67;;;;;;;14.26;100.00;99525.31;4387087;32;20108;-73
2022/07/17 05:13:38;;;;;;;10.25;1.77;;;;;;;14.22;100.00;99485.50;4400554;32;20053;-72
2022/07/17 05:16:06;;;;;;;8.73;1.55;;;;;;;14.37;100.00;99526.19;4401243;32;20424;-72
2022/07/17 05:18:33;;;;;;;7.15;1.52;;;;;;;14.36;100.00;99519.16;4387346;32;20065;-73
2022/07/17 05:21:00;;;;;;;4.65;1.58;;;;;;;14.44;100.00;99494.28;4400620;32;20039;-72
2022/07/17 05:23:28;;;;;;;3.92;1.25;;;;;;;14.43;100.00;99489.94;4402520;32;20334;-72
2022/07/17 05:25:54;;;;;;;6.28;1.55;;;;;;;14.41;100.00;99489.38;4400770;32;20043;-72
2022/07/17 05:28:21;;;;;;;8.25;1.02;;;;;;;14.79;100.00;99544.34;4400731;32;20035;-72
2022/07/17 05:30:47;;;;;;;5.53;1.35;;;;;;;14.89;100.00;99533.50;4401718;32;20035;-72
2022/07/17 05:33:14;;;;;;;8.32;1.67;;;;;;;14.85;100.00;99491.75;4394563;32;20361;-72
2022/07/17 05:35:46;;;;;;;4.60;1.10;;;;;;;15.21;100.00;99539.84;4386506;32;20072;-72
2022/07/17 05:38:13;;;;;;;5.43;1.40;;;;;;;15.02;100.00;99496.13;4387516;32;20088;-72
2022/07/17 05:40:42;;;;;;;5.55;1.40;;;;;;;15.30;100.00;99532.00;4396347;32;20098;-73
2022/07/17 05:43:08;;;;;;;2.15;1.77;;;;;;;15.01;100.00;99503.47;4402046;32;20047;-72
2022/07/17 05:45:35;;;;;;;6.20;2.28;;;;;;;15.41;100.00;99534.47;4402527;32;20401;-71
2022/07/17 05:48:01;;;;;;;6.03;1.40;;;;;;;15.57;100.00;99524.44;4397152;32;20100;-73
2022/07/17 05:50:28;;;;;;;6.22;1.65;;;;;;;15.61;100.00;99533.66;4390682;32;20053;-81
2022/07/17 05:52:54;;;;;;;9.07;1.50;;;;;;;15.59;100.00;99535.84;4388413;32;20249;-83
2022/07/17 05:55:21;;;;;;;3.70;1.00;;;;;;;15.45;100.00;99496.75;4400974;32;20099;-82
2022/07/17 05:57:47;;;;;;;2.25;1.27;;;;;;;15.91;100.00;99547.56;4388005;32;20035;-83
2022/07/17 06:00:14;;;;;;;4.05;1.25;;;;;;;15.33;100.00;99501.59;4395208;32;20039;-83
2022/07/17 06:02:41;;;;;;;2.72;1.05;;;;;;;15.27;100.00;99462.81;4383993;32;20074;-81
2022/07/17 06:05:08;;;;;;;4.65;1.48;;;;;;;15.91;100.00;99532.06;4399414;32;20055;-84
2022/07/17 06:07:34;;;;;;;2.08;1.20;;;;;;;16.18;100.00;99547.25;4388013;32;20027;-82
2022/07/17 06:10:01;;;;;;;2.05;1.27;;;;;;;16.28;100.00;99539.06;4399484;32;20104;-82
2022/07/17 06:12:27;;;;;;;4.68;1.10;;;;;;;16.32;100.00;99539.31;4400949;32;20064;-81
2022/07/17 06:14:53;;;;;;;5.62;0.95;;;;;;;16.14;100.00;99514.38;4399657;32;20050;-81
2022/07/17 06:17:20;;;;;;;11.57;1.50;;;;;;;16.07;100.00;99507.63;4388249;32;20051;-82
2022/07/17 06:19:46;;;;;;;6.25;1.15;;;;;;;15.81;100.00;99483.19;4398826;32;20028;-82
2022/07/17 06:22:13;;;;;;;6.60;1.20;;;;;;;16.18;100.00;99503.78;4398697;32;20035;-83
2022/07/17 06:24:39;;;;;;;6.55;1.52;;;;;;;16.48;100.00;99537.38;4398234;32;20060;-82
2022/07/17 06:27:06;;;;;;;3.87;1.73;;;;;;;16.56;100.00;99542.28;4399275;32;20027;-81
2022/07/17 06:29:32;;;;;;;5.40;1.20;;;;;;;16.46;100.00;99505.03;4400215;32;20073;-81
2022/07/17 06:31:58;;;;;;;6.82;1.50;;;;;;;16.44;100.00;99517.31;4400454;32;20043;-80
2022/07/17 06:34:25;;;;;;;6.25;1.20;;;;;;;16.40;100.00;99536.06;4400777;32;20041;-81
2022/07/17 06:36:51;;;;;;;1.77;0.73;;;;;;;16.68;100.00;99550.91;4400286;32;20161;-79
2022/07/17 06:39:18;;;;;;;4.87;0.90;;;;;;;16.77;100.00;99569.38;4397400;32;20109;-79
2022/07/17 06:41:44;;;;;;;6.25;1.00;;;;;;;16.91;100.00;99566.91;4401646;32;20380;-79
2022/07/17 06:44:10;;;;;;;1.67;1.10;;;;;;;16.87;100.00;99550.34;4390324;32;20042;-80
2022/07/17 06:46:37;;;;;;;3.85;1.55;;;;;;;17.09;100.00;99563.56;4386488;32;20043;-79
2022/07/17 06:49:03;;;;;;;3.50;1.30;;;;;;;17.00;100.00;99535.31;4398930;32;20035;-80
2022/07/17 06:51:29;;;;;;;5.00;1.17;;;;;;;17.14;100.00;99563.53;4397565;32;20443;-79
2022/07/17 06:53:56;;;;;;;2.15;1.45;;;;;;;17.20;100.00;99577.91;4384551;32;20088;-80
2022/07/17 06:56:23;;;;;;;4.00;1.15;;;;;;;16.91;100.00;99524.19;4400548;32;20170;-79
2022/07/17 06:58:49;;;;;;;1.40;0.80;;;;;;;17.32;100.00;99581.13;4401407;32;20034;-82
2022/07/17 07:01:15;;;;;;;1.02;0.77;;;;;;;17.53;100.00;99579.09;4400305;32;20046;-79
2022/07/17 07:03:42;;;;;;;3.20;1.00;;;;;;;17.17;100.00;99534.97;4383045;32;20084;-78
2022/07/17 07:06:08;;;;;;;4.50;1.10;;;;;;;17.51;100.00;99575.03;4385482;32;20461;-80
2022/07/17 07:08:35;;;;;;;11.75;1.10;;;;;;;17.41;100.00;99535.87;4372228;32;20105;-77
2022/07/17 07:11:02;;;;;;;7.68;1.50;;;;;;;17.26;100.00;99514.19;4383928;32;20065;-81
2022/07/17 07:13:29;;;;;;;9.07;1.23;;;;;;;17.51;100.00;99561.41;4384870;32;20425;-80
2022/07/17 07:15:56;;;;;;;3.15;1.08;;;;;;;17.82;100.00;99593.88;4384600;32;20094;-82
2022/07/17 07:18:23;;;;;;;1.25;1.00;;;;;;;17.82;100.00;99569.34;4373938;32;20386;-84
2022/07/17 07:20:49;;;;;;;4.15;1.02;;;;;;;17.57;100.00;99552.13;4400119;32;20437;-81
2022/07/17 07:23:16;;;;;;;1.25;0.77;;;;;;;17.56;100.00;99532.22;4398345;32;20039;-86
2022/07/17 07:25:44;;;;;;;3.00;1.17;;;;;;;18.11;100.00;99597.47;4400032;32;20039;-82
2022/07/17 07:28:10;;;;;;;3.62;1.42;;;;;;;17.81;100.00;99565.03;4399632;32;20042;-77
2022/07/17 07:30:37;;;;;;;0.60;0.60;;;;;;;17.92;100.00;99566.59;4387892;32;20172;-85
2022/07/17 07:33:03;;;;;;;5.43;1.10;;;;;;;17.92;100.00;99555.69;4398442;32;20038;-84
2022/07/17 07:35:29;;;;;;;1.23;1.12;;;;;;;18.06;100.00;99543.03;4387854;32;20065;-84
2022/07/17 07:37:56;;;;;;;1.27;0.70;;;;;;;18.54;100.00;99576.91;4385819;32;20077;-89
2022/07/17 07:40:23;;;;;;;2.25;0.95;;;;;;;18.48;100.00;99585.12;4373407;32;20030;-87
2022/07/17 07:42:49;;;;;;;2.22;0.98;;;;;;;18.40;100.00;99615.75;4386020;32;20064;-89
2022/07/17 07:45:16;;;;;;;4.10;0.80;;;;;;;18.21;100.00;99596.56;4374358;32;20413;-86
2022/07/17 07:47:46;;;;;;;2.05;0.88;;;;;;;18.24;100.00;99584.31;4383226;32;20046;-84
2022/07/17 07:50:13;;;;;;;4.68;0.90;;;;;;;18.21;100.00;99554.88;4388876;32;20028;-90
2022/07/17 07:52:40;;;;;;;2.17;1.40;;;;;;;18.69;100.00;99601.28;4384783;32;20030;-83
2022/07/17 07:55:10;;;;;;;2.70;0.88;;;;;;;18.64;100.00;99606.78;4396948;32;20466;-83
2022/07/17 07:57:37;;;;;;;3.03;1.48;;;;;;;17.60;100.00;99450.81;4399466;32;20113;-85
2022/07/17 08:00:06;;;;;;;1.20;0.90;;;;;;;18.34;100.00;99585.00;4392530;32;20050;-83
2022/07/17 08:05:12;;;;;;;2.00;0.85;;;;;;;18.64;100.00;99614.97;4397347;32;20090;-84
2022/07/17 08:07:38;;;;;;;2.42;1.00;;;;;;;18.81;100.00;99637.16;4386652;32;20047;-84
2022/07/17 08:10:09;;;;;;;5.32;0.88;;;;;;;18.73;100.00;99613.25;4399233;32;20077;-83
2022/07/17 08:12:37;;;;;;;1.42;0.68;;;;;;;18.69;100.00;99634.00;4391597;32;20114;-87
2022/07/17 08:15:05;;;;;;;4.18;1.08;;;;;;;18.69;100.00;99612.19;4396400;32;20039;-84
2022/07/17 08:17:38;;;;;;;6.53;1.00;;;;;;;18.87;100.00;99621.56;4395061;32;20415;-84
2022/07/17 08:20:09;;;;;;;4.18;0.80;;;;;;;18.78;100.00;99642.34;4388268;32;20424;-80
2022/07/17 08:22:36;;;;;;;1.73;0.73;;;;;;;19.03;100.00;99622.19;4399108;32;20031;-87
2022/07/17 08:25:03;;;;;;;1.65;1.37;;;;;;;19.09;100.00;99612.84;4384409;32;20039;-91
2022/07/17 08:27:36;;;;;;;5.45;0.93;;;;;;;18.84;100.00;99576.59;4385709;32;20131;-91
2022/07/17 08:30:04;;;;;;;3.35;0.95;;;;;;;19.01;100.00;99564.38;4385220;32;20057;-85
2022/07/17 08:32:37;;;;;;;2.08;0.70;;;;;;;19.43;100.00;99647.34;4394290;32;20593;-84
2022/07/17 08:35:04;;;;;;;1.98;1.00;;;;;;;19.05;100.00;99630.91;4397629;32;20051;-88
2022/07/17 08:37:31;;;;;;;4.50;0.82;;;;;;;19.19;100.00;99625.53;4398283;32;20042;-87
2022/07/17 08:39:57;;;;;;;4.00;0.65;;;;;;;19.29;100.00;99632.78;4397759;32;20063;-86
2022/07/17 08:42:23;;;;;;;0.55;0.55;;;;;;;19.37;100.00;99622.03;4397688;32;20407;-88
2022/07/17 08:44:50;;;;;;;0.82;0.82;;;;;;;19.55;100.00;99639.53;4396368;32;20051;-84
2022/07/17 08:47:16;;;;;;;0.85;0.85;;;;;;;19.28;100.00;99623.00;4399658;32;20438;-85
2022/07/17 08:49:46;;;;;;;1.45;0.85;;;;;;;19.29;100.00;99635.53;4401311;32;20035;-86
2022/07/17 08:52:13;;;;;;;1.73;0.70;;;;;;;18.72;100.00;99567.97;4402239;32;20344;-89
2022/07/17 08:54:39;;;;;;;1.75;0.70;;;;;;;19.18;100.00;99626.66;4389597;32;20051;-84
2022/07/17 08:57:06;;;;;;;3.75;0.88;;;;;;;19.04;100.00;99596.53;4401490;32;20035;-87
2022/07/17 08:59:33;;;;;;;2.85;0.82;;;;;;;19.40;100.00;99631.56;4403514;32;20117;-86
2022/07/17 09:01:59;;;;;;;3.28;0.70;;;;;;;19.47;100.00;99651.13;4402831;32;20050;-88
2022/07/17 09:04:26;;;;;;;1.62;0.77;;;;;;;19.28;100.00;99639.38;4401636;32;20076;-88
2022/07/17 09:07:04;;;;;;;0.70;0.70;;;;;;;19.23;100.00;99600.09;4388685;32;20057;-87
2022/07/17 09:09:33;;;;;;;3.40;0.70;;;;;;;19.02;100.00;99561.34;4395600;32;20312;-86
2022/07/17 09:12:01;;;;;;;2.10;0.88;;;;;;;19.41;100.00;99655.84;4386911;32;20326;-86
2022/07/17 09:14:41;;;;;;;0.90;0.70;;;;;;;19.19;100.00;99604.53;4386863;32;20027;-85
2022/07/17 09:17:10;;;;;;;5.28;0.80;;;;;;;19.36;100.00;99642.25;4387629;32;20063;-87
2022/07/17 09:19:41;;;;;;;2.28;1.37;;;;;;;19.58;98.83;99632.69;4387104;32;20043;-85
2022/07/17 09:22:14;;;;;;;2.45;0.77;;;;;;;19.51;100.00;99643.97;4386037;32;20043;-87
2022/07/17 09:24:58;;;;;;;0.98;0.73;;;;;;;19.65;97.66;99645.97;4385808;32;20196;-88
2022/07/17 09:27:24;;;;;;;1.10;0.70;;;;;;;19.77;99.01;99591.75;4386306;32;20049;-88
2022/07/17 09:29:54;;;;;;;0.68;0.68;;;;;;;20.16;94.68;99658.87;4386581;32;20069;-90
2022/07/17 09:32:22;;;;;;;2.20;0.70;;;;;;;20.27;95.36;99643.94;4387690;32;20069;-85
2022/07/17 09:34:50;;;;;;;1.77;0.90;;;;;;;20.18;93.82;99662.12;4386765;32;20080;-87
2022/07/17 09:37:17;;;;;;;4.03;0.75;;;;;;;19.86;87.91;99655.50;4387093;32;20048;-88
2022/07/17 09:39:44;;;;;;;0.88;0.60;;;;;;;19.54;96.35;99648.03;4386547;32;20039;-89
2022/07/17 09:42:23;;;;;;;3.83;0.60;;;;;;;19.88;94.09;99639.66;4385423;32;20030;-87
2022/07/17 09:45:09;;;;;;;5.78;2.08;;;;;;;20.10;93.51;99643.69;4387337;32;20088;-89
2022/07/17 09:47:38;;;;;;;0.95;0.82;;;;;;;20.05;97.57;99662.91;4385360;32;20035;-86
2022/07/17 09:50:07;;;;;;;2.03;0.80;;;;;;;19.67;99.60;99658.22;4384284;32;20051;-85
2022/07/17 09:52:35;;;;;;;1.30;0.85;;;;;;;19.78;100.00;99661.66;4387234;32;20055;-87
2022/07/17 09:55:03;;;;;;;3.67;1.10;;;;;;;19.69;97.61;99627.87;4386788;32;20100;-89
2022/07/17 09:57:32;;;;;;;4.47;0.90;;;;;;;19.72;97.16;99589.87;4386137;32;20052;-89
2022/07/17 10:00:03;;;;;;;2.33;0.95;;;;;;;20.32;93.64;99641.09;4384705;32;20043;-88
2022/07/17 10:02:45;;;;;;;1.55;0.65;;;;;;;20.17;91.27;99596.81;4387132;32;20112;-90
2022/07/17 10:05:15;;;;;;;2.03;0.60;;;;;;;19.91;91.85;99587.13;4386730;32;20087;-87
2022/07/17 10:07:45;;;;;;;1.55;0.73;;;;;;;19.97;89.98;99612.44;4371987;32;20136;-86
2022/07/17 10:10:17;;;;;;;6.82;1.27;;;;;;;20.24;92.28;99644.53;4385128;32;20078;-86
2022/07/17 10:12:45;;;;;;;;;;;;;;;20.26;76.06;99657.91;4386834;32;20035;-88
2022/07/17 10:15:12;;;;;;;1.35;0.70;;;;;;;20.44;81.88;99642.59;4388310;32;19933;-87
2022/07/17 10:17:39;;;;;;;2.15;0.68;;;;;;;20.47;83.56;99641.94;4395289;32;20099;-88
2022/07/17 10:20:06;;;;;;;2.83;1.42;;;;;;;20.62;85.73;99633.47;4386968;32;20091;-83
2022/07/17 10:22:43;;;;;;;2.35;0.82;;;;;;;20.43;85.19;99619.06;4400492;32;20168;-87
2022/07/17 10:25:14;;;;;;;0.93;0.80;;;;;;;20.99;84.13;99648.13;4402991;32;20085;-84
2022/07/17 10:27:49;;;;;;;3.92;1.08;;;;;;;20.50;77.68;99623.03;4402921;32;20032;-84
2022/07/17 10:30:29;;;;;;;4.95;1.15;;;;;;;20.32;78.00;99629.38;4403214;32;20094;-86
2022/07/17 10:33:01;;;;;;;1.33;0.75;;;;;;;20.44;69.26;99604.28;4402353;32;20063;-84
2022/07/17 10:35:28;;;;;;;0.80;0.70;;;;;;;20.87;63.06;99645.09;4403562;32;20044;-86
2022/07/17 10:38:11;;;;;;;5.15;0.90;;;;;;;20.39;74.39;99607.94;4395978;32;20146;-87
2022/07/17 10:40:38;;;;;;;4.05;1.00;;;;;;;20.50;76.00;99641.34;4387824;32;20047;-88
2022/07/17 10:43:06;;;;;;;2.83;0.73;;;;;;;20.46;72.53;99618.47;4385899;32;20039;-91
2022/07/17 10:45:44;;;;;;;0.88;0.70;;;;;;;20.94;63.39;99606.38;4385850;32;20083;-85
2022/07/17 10:48:19;;;;;;;1.12;0.88;;;;;;;21.30;65.90;99663.13;4386983;32;20055;-88
2022/07/17 10:50:51;;;;;;;5.47;1.08;;;;;;;20.71;66.22;99569.88;4386022;32;20033;-88
2022/07/17 10:53:23;;;;;;;1.12;0.85;;;;;;;21.10;66.24;99598.66;4386039;32;20073;-84
2022/07/17 10:55:51;;;;;;;1.00;0.82;;;;;;;21.55;52.24;99648.91;4386694;32;20039;-84
2022/07/17 10:58:22;;;;;;;6.75;0.80;;;;;;;21.48;56.29;99659.50;4385873;32;20155;-87
2022/07/17 11:00:56;;;;;;;5.87;0.90;;;;;;;21.05;64.28;99618.75;4386529;32;20084;-82
2022/07/17 11:03:23;;;;;;;2.85;0.90;;;;;;;21.35;66.84;99661.09;4384985;32;20077;-85
2022/07/17 11:05:49;;;;;;;5.07;0.75;;;;;;;21.88;64.82;99662.44;4386199;32;20047;-90
2022/07/17 11:08:16;;;;;;;8.40;0.95;;;;;;;22.46;56.36;99625.09;4386266;32;20384;-89
2022/07/17 11:10:42;;;;;;;3.45;0.93;;;;;;;23.12;46.10;99638.16;4373125;32;20101;-86
2022/07/17 11:13:15;;;;;;;4.15;0.70;;;;;;;23.41;46.37;99667.00;4385490;32;20039;-85
2022/07/17 11:15:44;;;;;;;5.57;3.97;;;;;;;23.03;48.63;99662.00;4385472;32;20065;-88
2022/07/17 11:18:20;;;;;;;2.70;1.15;;;;;;;22.24;51.17;99609.47;4386519;32;20043;-90
2022/07/17 11:20:54;;;;;;;2.00;0.80;;;;;;;22.55;52.06;99651.78;4371487;32;20385;-88
2022/07/17 11:23:24;;;;;;;3.08;0.75;;;;;;;22.82;50.53;99617.84;4384245;32;20035;-91
2022/07/17 11:25:56;;;;;;;1.98;0.77;;;;;;;22.16;49.20;99612.16;4386395;32;20091;-89
2022/07/17 11:28:38;;;;;;;0.80;0.80;;;;;;;22.36;48.77;99655.53;4385248;32;20078;-90
2022/07/17 11:31:21;;;;;;;2.15;0.93;;;;;;;21.92;51.90;99640.69;4386037;32;20080;-92
2022/07/17 11:34:04;;;;;;;2.40;0.80;;;;;;;22.26;50.56;99617.38;4385241;32;20069;-88